sensor_id;sensor_type;location;lat;lon;timestamp;pressure;altitude;pressure_sealevel;temperature;humidity
3260;BME280;68938;48.150;14.004;2024-03-02T00:01:34;97103.19;;;11.97;67.68
3260;BME280;68938;48.150;14.004;2024-03-02T00:04:03;97107.41;;;11.98;67.76
3260;BME280;68938;48.150;14.004;2024-03-02T00:06:31;97097.22;;;11.97;67.93
3260;BME280;68938;48.150;14.004;2024-03-02T00:08:58;97101.44;;;11.98;67.95
3260;BME280;68938;48.150;14.004;2024-03-02T00:11:25;97109.22;;;11.96;67.95
3260;BME280;68938;48.150;14.004;2024-03-02T00:13:53;97104.28;;;11.93;68.15
3260;BME280;68938;48.150;14.004;2024-03-02T00:16:20;97101.59;;;11.95;68.03
3260;BME280;68938;48.150;14.004;2024-03-02T00:18:47;97099.03;;;11.95;67.99
3260;BME280;68938;48.150;14.004;2024-03-02T00:21:14;97102.59;;;11.92;67.65
3260;BME280;68938;48.150;14.004;2024-03-02T00:23:40;97100.13;;;11.91;67.61
3260;BME280;68938;48.150;14.004;2024-03-02T00:26:11;97093.38;;;11.88;67.80
3260;BME280;68938;48.150;14.004;2024-03-02T00:28:39;97096.06;;;11.87;67.67
3260;BME280;68938;48.150;14.004;2024-03-02T00:31:08;97091.78;;;11.85;67.54
3260;BME280;68938;48.150;14.004;2024-03-02T00:33:44;97094.47;;;11.84;67.67
3260;BME280;68938;48.150;14.004;2024-03-02T00:36:14;97103.13;;;11.81;67.96
3260;BME280;68938;48.150;14.004;2024-03-02T00:38:53;97104.84;;;11.81;67.62
3260;BME280;68938;48.150;14.004;2024-03-02T00:41:31;97101.88;;;11.73;68.15
3260;BME280;68938;48.150;14.004;2024-03-02T00:44:06;97102.09;;;11.68;68.52
3260;BME280;68938;48.150;14.004;2024-03-02T00:46:40;97100.44;;;11.67;68.51
3260;BME280;68938;48.150;14.004;2024-03-02T00:49:20;97100.34;;;11.69;68.88
3260;BME280;68938;48.150;14.004;2024-03-02T00:51:50;97104.75;;;11.67;68.53
3260;BME280;68938;48.150;14.004;2024-03-02T00:54:24;97102.09;;;11.68;68.56
3260;BME280;68938;48.150;14.004;2024-03-02T00:56:52;97104.75;;;11.67;68.30
3260;BME280;68938;48.150;14.004;2024-03-02T00:59:21;97104.06;;;11.63;68.21
3260;BME280;68938;48.150;14.004;2024-03-02T01:01:49;97104.13;;;11.61;68.17
3260;BME280;68938;48.150;14.004;2024-03-02T01:04:16;97100.97;;;11.56;68.59
3260;BME280;68938;48.150;14.004;2024-03-02T01:06:43;97101.03;;;11.55;68.13
3260;BME280;68938;48.150;14.004;2024-03-02T01:09:10;97107.19;;;11.52;68.38
3260;BME280;68938;48.150;14.004;2024-03-02T01:11:37;97102.94;;;11.51;68.12
3260;BME280;68938;48.150;14.004;2024-03-02T01:14:04;97092.66;;;11.51;68.26
3260;BME280;68938;48.150;14.004;2024-03-02T01:16:31;97095.22;;;11.51;68.44
3260;BME280;68938;48.150;14.004;2024-03-02T01:18:58;97099.63;;;11.49;68.42
3260;BME280;68938;48.150;14.004;2024-03-02T01:21:25;97094.50;;;11.49;68.04
3260;BME280;68938;48.150;14.004;2024-03-02T01:23:52;97099.09;;;11.43;68.53
3260;BME280;68938;48.150;14.004;2024-03-02T01:26:19;97101.88;;;11.38;69.23
3260;BME280;68938;48.150;14.004;2024-03-02T01:28:45;97098.44;;;11.39;69.15
3260;BME280;68938;48.150;14.004;2024-03-02T01:31:12;97093.97;;;11.43;68.88
3260;BME280;68938;48.150;14.004;2024-03-02T01:33:39;97094.94;;;11.40;69.20
3260;BME280;68938;48.150;14.004;2024-03-02T01:36:06;97091.47;;;11.41;68.74
3260;BME280;68938;48.150;14.004;2024-03-02T01:38:33;97093.16;;;11.42;68.74
3260;BME280;68938;48.150;14.004;2024-03-02T01:41:00;97089.81;;;11.40;68.75
3260;BME280;68938;48.150;14.004;2024-03-02T01:43:27;97089.91;;;11.38;68.89
3260;BME280;68938;48.150;14.004;2024-03-02T01:45:53;97097.44;;;11.42;69.07
3260;BME280;68938;48.150;14.004;2024-03-02T01:48:21;97094.94;;;11.40;68.95
3260;BME280;68938;48.150;14.004;2024-03-02T01:50:47;97093.16;;;11.42;68.89
3260;BME280;68938;48.150;14.004;2024-03-02T01:53:14;97082.03;;;11.42;68.85
3260;BME280;68938;48.150;14.004;2024-03-02T01:55:41;97091.56;;;11.39;68.90
3260;BME280;68938;48.150;14.004;2024-03-02T01:58:08;97095.94;;;11.37;69.12
3260;BME280;68938;48.150;14.004;2024-03-02T02:00:36;97081.34;;;11.38;69.06
3260;BME280;68938;48.150;14.004;2024-03-02T02:03:03;97087.34;;;11.38;69.09
3260;BME280;68938;48.150;14.004;2024-03-02T02:05:30;97089.91;;;11.38;69.33
3260;BME280;68938;48.150;14.004;2024-03-02T02:07:57;97088.91;;;11.41;69.20
3260;BME280;68938;48.150;14.004;2024-03-02T02:10:24;97088.75;;;11.44;69.15
3260;BME280;68938;48.150;14.004;2024-03-02T02:12:51;97086.19;;;11.44;68.89
3260;BME280;68938;48.150;14.004;2024-03-02T02:15:29;97087.69;;;11.48;69.21
3260;BME280;68938;48.150;14.004;2024-03-02T02:17:57;97081.13;;;11.43;69.34
3260;BME280;68938;48.150;14.004;2024-03-02T02:20:26;97080.13;;;11.45;69.02
3260;BME280;68938;48.150;14.004;2024-03-02T02:23:03;97073.94;;;11.49;68.78
3260;BME280;68938;48.150;14.004;2024-03-02T02:25:31;97071.44;;;11.48;69.33
3260;BME280;68938;48.150;14.004;2024-03-02T02:27:57;97072.28;;;11.48;69.04
3260;BME280;68938;48.150;14.004;2024-03-02T02:30:28;97068.97;;;11.46;69.05
3260;BME280;68938;48.150;14.004;2024-03-02T02:32:56;97068.28;;;11.43;69.02
3260;BME280;68938;48.150;14.004;2024-03-02T02:35:24;97062.50;;;11.39;69.16
3260;BME280;68938;48.150;14.004;2024-03-02T02:37:53;97076.22;;;11.38;69.16
3260;BME280;68938;48.150;14.004;2024-03-02T02:40:21;97076.97;;;11.40;68.90
3260;BME280;68938;48.150;14.004;2024-03-02T02:42:48;97067.63;;;11.39;69.18
3260;BME280;68938;48.150;14.004;2024-03-02T02:45:16;97065.13;;;11.37;69.10
3260;BME280;68938;48.150;14.004;2024-03-02T02:47:44;97067.78;;;11.36;69.27
3260;BME280;68938;48.150;14.004;2024-03-02T02:50:12;97070.25;;;11.37;69.46
3260;BME280;68938;48.150;14.004;2024-03-02T02:52:40;97057.56;;;11.34;69.54
3260;BME280;68938;48.150;14.004;2024-03-02T02:55:10;97063.47;;;11.36;69.27
3260;BME280;68938;48.150;14.004;2024-03-02T02:57:42;97060.91;;;11.36;69.59
3260;BME280;68938;48.150;14.004;2024-03-02T03:00:14;97060.81;;;11.38;69.61
3260;BME280;68938;48.150;14.004;2024-03-02T03:02:46;97055.81;;;11.35;69.64
3260;BME280;68938;48.150;14.004;2024-03-02T03:05:15;97061.88;;;11.34;69.75
3260;BME280;68938;48.150;14.004;2024-03-02T03:07:42;97057.66;;;11.33;69.72
3260;BME280;68938;48.150;14.004;2024-03-02T03:10:10;97052.53;;;11.33;70.01
3260;BME280;68938;48.150;14.004;2024-03-02T03:12:37;97052.59;;;11.31;70.17
3260;BME280;68938;48.150;14.004;2024-03-02T03:15:04;97051.91;;;11.28;70.85
3260;BME280;68938;48.150;14.004;2024-03-02T03:17:31;97049.53;;;11.25;70.21
3260;BME280;68938;48.150;14.004;2024-03-02T03:19:58;97046.25;;;11.21;70.36
3260;BME280;68938;48.150;14.004;2024-03-02T03:22:25;97042.84;;;11.21;70.54
3260;BME280;68938;48.150;14.004;2024-03-02T03:24:53;97047.94;;;11.22;70.52
3260;BME280;68938;48.150;14.004;2024-03-02T03:27:20;97053.06;;;11.22;70.53
3260;BME280;68938;48.150;14.004;2024-03-02T03:29:47;97051.22;;;11.24;70.72
3260;BME280;68938;48.150;14.004;2024-03-02T03:32:14;97043.53;;;11.24;70.48
3260;BME280;68938;48.150;14.004;2024-03-02T03:34:41;97047.94;;;11.22;70.44
3260;BME280;68938;48.150;14.004;2024-03-02T03:37:08;97048.66;;;11.24;70.59
3260;BME280;68938;48.150;14.004;2024-03-02T03:39:35;97048.59;;;11.26;70.31
3260;BME280;68938;48.150;14.004;2024-03-02T03:42:03;97043.53;;;11.24;69.91
3260;BME280;68938;48.150;14.004;2024-03-02T03:44:30;97049.44;;;11.26;70.37
3260;BME280;68938;48.150;14.004;2024-03-02T03:46:57;97044.53;;;11.22;70.32
3260;BME280;68938;48.150;14.004;2024-03-02T03:49:24;97053.28;;;11.18;70.34
3260;BME280;68938;48.150;14.004;2024-03-02T03:51:51;97049.72;;;11.20;70.25
3260;BME280;68938;48.150;14.004;2024-03-02T03:54:18;97045.44;;;11.21;70.12
3260;BME280;68938;48.150;14.004;2024-03-02T03:56:45;97038.94;;;11.13;69.77
3260;BME280;68938;48.150;14.004;2024-03-02T03:59:12;97046.78;;;11.10;70.37
3260;BME280;68938;48.150;14.004;2024-03-02T04:01:39;97050.13;;;11.12;70.17
3260;BME280;68938;48.150;14.004;2024-03-02T04:04:06;97041.44;;;11.15;70.59
3260;BME280;68938;48.150;14.004;2024-03-02T04:06:33;97038.06;;;11.14;70.14
3260;BME280;68938;48.150;14.004;2024-03-02T04:09:00;97049.22;;;11.13;70.25
3260;BME280;68938;48.150;14.004;2024-03-02T04:11:26;97049.22;;;11.13;70.36
3260;BME280;68938;48.150;14.004;2024-03-02T04:13:54;97048.38;;;11.13;70.36
3260;BME280;68938;48.150;14.004;2024-03-02T04:16:24;97052.53;;;11.15;70.04
3260;BME280;68938;48.150;14.004;2024-03-02T04:18:51;97052.59;;;11.14;70.72
3260;BME280;68938;48.150;14.004;2024-03-02T04:21:18;97052.44;;;11.17;70.71
3260;BME280;68938;48.150;14.004;2024-03-02T04:23:45;97048.09;;;11.19;70.45
3260;BME280;68938;48.150;14.004;2024-03-02T04:26:12;97053.94;;;11.21;70.11
3260;BME280;68938;48.150;14.004;2024-03-02T04:28:39;97053.06;;;11.22;70.44
3260;BME280;68938;48.150;14.004;2024-03-02T04:31:06;97052.16;;;11.23;70.60
3260;BME280;68938;48.150;14.004;2024-03-02T04:33:33;97052.09;;;11.25;70.47
3260;BME280;68938;48.150;14.004;2024-03-02T04:36:00;97041.06;;;11.23;70.57
3260;BME280;68938;48.150;14.004;2024-03-02T04:38:27;97040.97;;;11.24;70.69
3260;BME280;68938;48.150;14.004;2024-03-02T04:40:54;97048.66;;;11.24;70.58
3260;BME280;68938;48.150;14.004;2024-03-02T04:43:20;97042.78;;;11.22;70.57
3260;BME280;68938;48.150;14.004;2024-03-02T04:45:48;97043.53;;;11.24;70.91
3260;BME280;68938;48.150;14.004;2024-03-02T04:48:15;97038.50;;;11.23;71.35
3260;BME280;68938;48.150;14.004;2024-03-02T04:50:42;97041.22;;;11.20;70.98
3260;BME280;68938;48.150;14.004;2024-03-02T04:53:08;97038.56;;;11.21;71.27
3260;BME280;68938;48.150;14.004;2024-03-02T04:55:35;97044.69;;;11.19;71.34
3260;BME280;68938;48.150;14.004;2024-03-02T04:58:02;97041.22;;;11.20;71.14
3260;BME280;68938;48.150;14.004;2024-03-02T05:00:30;97038.63;;;11.20;71.81
3260;BME280;68938;48.150;14.004;2024-03-02T05:02:57;97039.47;;;11.20;71.12
3260;BME280;68938;48.150;14.004;2024-03-02T05:05:24;97037.88;;;11.18;71.17
3260;BME280;68938;48.150;14.004;2024-03-02T05:07:51;97045.56;;;11.18;71.47
3260;BME280;68938;48.150;14.004;2024-03-02T05:10:18;97044.84;;;11.15;71.51
3260;BME280;68938;48.150;14.004;2024-03-02T05:12:45;97039.56;;;11.19;71.55
3260;BME280;68938;48.150;14.004;2024-03-02T05:15:14;97040.69;;;11.13;71.51
3260;BME280;68938;48.150;14.004;2024-03-02T05:17:42;97045.03;;;11.11;71.84
3260;BME280;68938;48.150;14.004;2024-03-02T05:20:10;97051.91;;;11.10;71.89
3260;BME280;68938;48.150;14.004;2024-03-02T05:22:37;97047.94;;;11.05;71.91
3260;BME280;68938;48.150;14.004;2024-03-02T05:25:05;97051.41;;;11.04;71.99
3260;BME280;68938;48.150;14.004;2024-03-02T05:27:33;97044.75;;;11.00;72.18
3260;BME280;68938;48.150;14.004;2024-03-02T05:30:02;97046.72;;;10.95;72.65
3260;BME280;68938;48.150;14.004;2024-03-02T05:32:30;97048.47;;;10.94;72.88
3260;BME280;68938;48.150;14.004;2024-03-02T05:34:56;97054.50;;;10.93;72.66
3260;BME280;68938;48.150;14.004;2024-03-02T05:37:23;97046.88;;;10.91;72.84
3260;BME280;68938;48.150;14.004;2024-03-02T05:39:50;97046.94;;;10.90;72.83
3260;BME280;68938;48.150;14.004;2024-03-02T05:42:17;97049.50;;;10.90;72.89
3260;BME280;68938;48.150;14.004;2024-03-02T05:44:44;97049.50;;;10.90;73.06
3260;BME280;68938;48.150;14.004;2024-03-02T05:47:11;97052.84;;;10.92;72.93
3260;BME280;68938;48.150;14.004;2024-03-02T05:49:38;97059.03;;;10.88;72.94
3260;BME280;68938;48.150;14.004;2024-03-02T05:52:05;97063.25;;;10.89;72.94
3260;BME280;68938;48.150;14.004;2024-03-02T05:54:33;97058.19;;;10.87;73.13
3260;BME280;68938;48.150;14.004;2024-03-02T05:57:00;97059.72;;;10.91;73.04
3260;BME280;68938;48.150;14.004;2024-03-02T05:59:27;97063.88;;;10.94;73.10
3260;BME280;68938;48.150;14.004;2024-03-02T06:01:54;97064.59;;;10.96;72.60
3260;BME280;68938;48.150;14.004;2024-03-02T06:04:21;97073.66;;;11.03;72.98
3260;BME280;68938;48.150;14.004;2024-03-02T06:06:49;97071.88;;;11.05;73.03
3260;BME280;68938;48.150;14.004;2024-03-02T06:09:16;97067.41;;;11.09;72.84
3260;BME280;68938;48.150;14.004;2024-03-02T06:11:43;97073.28;;;11.11;73.08
3260;BME280;68938;48.150;14.004;2024-03-02T06:14:10;97069.69;;;11.15;72.61
3260;BME280;68938;48.150;14.004;2024-03-02T06:16:36;97072.97;;;11.17;72.53
3260;BME280;68938;48.150;14.004;2024-03-02T06:19:03;97072.97;;;11.17;72.49
3260;BME280;68938;48.150;14.004;2024-03-02T06:21:30;97076.59;;;11.13;72.63
3260;BME280;68938;48.150;14.004;2024-03-02T06:23:57;97087.50;;;11.18;72.58
3260;BME280;68938;48.150;14.004;2024-03-02T06:26:24;97089.16;;;11.19;72.45
3260;BME280;68938;48.150;14.004;2024-03-02T06:28:52;97095.09;;;11.20;72.31
3260;BME280;68938;48.150;14.004;2024-03-02T06:31:19;97094.19;;;11.21;72.28
3260;BME280;68938;48.150;14.004;2024-03-02T06:33:46;97092.63;;;11.18;72.27
3260;BME280;68938;48.150;14.004;2024-03-02T06:36:13;97099.94;;;11.26;72.78
3260;BME280;68938;48.150;14.004;2024-03-02T06:38:40;97102.38;;;11.29;72.30
3260;BME280;68938;48.150;14.004;2024-03-02T06:41:09;97108.31;;;11.29;72.28
3260;BME280;68938;48.150;14.004;2024-03-02T06:43:36;97105.59;;;11.32;71.63
3260;BME280;68938;48.150;14.004;2024-03-02T06:46:03;97107.16;;;11.35;72.18
3260;BME280;68938;48.150;14.004;2024-03-02T06:48:30;97116.25;;;11.42;71.88
3260;BME280;68938;48.150;14.004;2024-03-02T06:50:57;97117.81;;;11.45;71.93
3260;BME280;68938;48.150;14.004;2024-03-02T06:53:24;97120.03;;;11.52;71.84
3260;BME280;68938;48.150;14.004;2024-03-02T06:55:51;97131.13;;;11.53;71.75
3260;BME280;68938;48.150;14.004;2024-03-02T06:58:17;97125.06;;;11.54;71.53
3260;BME280;68938;48.150;14.004;2024-03-02T07:00:44;97131.19;;;11.51;71.38
3260;BME280;68938;48.150;14.004;2024-03-02T07:03:12;97125.16;;;11.52;71.21
3260;BME280;68938;48.150;14.004;2024-03-02T07:05:39;97128.56;;;11.53;71.27
3260;BME280;68938;48.150;14.004;2024-03-02T07:08:06;97130.28;;;11.52;71.20
3260;BME280;68938;48.150;14.004;2024-03-02T07:10:33;97128.25;;;11.59;71.18
3260;BME280;68938;48.150;14.004;2024-03-02T07:13:00;97126.56;;;11.58;70.74
3260;BME280;68938;48.150;14.004;2024-03-02T07:15:27;97139.19;;;11.62;71.03
3260;BME280;68938;48.150;14.004;2024-03-02T07:17:55;97137.38;;;11.65;70.80
3260;BME280;68938;48.150;14.004;2024-03-02T07:20:22;97143.94;;;11.70;70.85
3260;BME280;68938;48.150;14.004;2024-03-02T07:22:49;97142.97;;;11.73;70.38
3260;BME280;68938;48.150;14.004;2024-03-02T07:25:16;97142.97;;;11.73;69.75
3260;BME280;68938;48.150;14.004;2024-03-02T07:27:46;97147.19;;;11.74;69.81
3260;BME280;68938;48.150;14.004;2024-03-02T07:30:16;97147.19;;;11.74;70.26
3260;BME280;68938;48.150;14.004;2024-03-02T07:32:43;97155.72;;;11.74;69.91
3260;BME280;68938;48.150;14.004;2024-03-02T07:35:11;97150.44;;;11.77;69.89
3260;BME280;68938;48.150;14.004;2024-03-02T07:37:39;97157.06;;;11.81;69.85
3260;BME280;68938;48.150;14.004;2024-03-02T07:40:06;97164.72;;;11.83;69.29
3260;BME280;68938;48.150;14.004;2024-03-02T07:42:33;97168.97;;;11.84;69.49
3260;BME280;68938;48.150;14.004;2024-03-02T07:45:01;97166.31;;;11.85;69.55
3260;BME280;68938;48.150;14.004;2024-03-02T07:47:28;97160.09;;;11.90;69.44
3260;BME280;68938;48.150;14.004;2024-03-02T07:49:55;97164.34;;;11.91;69.62
3260;BME280;68938;48.150;14.004;2024-03-02T07:52:23;97180.19;;;11.99;69.62
3260;BME280;68938;48.150;14.004;2024-03-02T07:54:50;97170.00;;;11.97;69.36
3260;BME280;68938;48.150;14.004;2024-03-02T07:57:17;97172.34;;;12.02;69.03
3260;BME280;68938;48.150;14.004;2024-03-02T07:59:44;97170.53;;;12.04;69.07
3260;BME280;68938;48.150;14.004;2024-03-02T08:02:11;97178.81;;;12.09;69.12
3260;BME280;68938;48.150;14.004;2024-03-02T08:04:38;97180.41;;;12.12;69.34
3260;BME280;68938;48.150;14.004;2024-03-02T08:07:06;97183.56;;;12.17;69.25
3260;BME280;68938;48.150;14.004;2024-03-02T08:09:33;97179.03;;;12.22;69.12
3260;BME280;68938;48.150;14.004;2024-03-02T08:12:00;97178.72;;;12.28;69.22
3260;BME280;68938;48.150;14.004;2024-03-02T08:14:27;97183.59;;;12.32;69.05
3260;BME280;68938;48.150;14.004;2024-03-02T08:16:53;97181.69;;;12.36;68.99
3260;BME280;68938;48.150;14.004;2024-03-02T08:19:20;97185.75;;;12.40;68.87
3260;BME280;68938;48.150;14.004;2024-03-02T08:21:47;97170.94;;;12.45;68.53
3260;BME280;68938;48.150;14.004;2024-03-02T08:24:14;97169.75;;;12.51;68.71
3260;BME280;68938;48.150;14.004;2024-03-02T08:26:41;97181.63;;;12.53;68.04
3260;BME280;68938;48.150;14.004;2024-03-02T08:29:09;97167.13;;;12.52;68.03
3260;BME280;68938;48.150;14.004;2024-03-02T08:31:36;97173.84;;;12.55;68.04
3260;BME280;68938;48.150;14.004;2024-03-02T08:34:06;97176.25;;;12.58;68.03
3260;BME280;68938;48.150;14.004;2024-03-02T08:36:33;97186.03;;;12.67;67.98
3260;BME280;68938;48.150;14.004;2024-03-02T08:39:01;97177.09;;;12.74;67.88
3260;BME280;68938;48.150;14.004;2024-03-02T08:41:27;97177.69;;;12.79;67.62
3260;BME280;68938;48.150;14.004;2024-03-02T08:43:54;97176.44;;;12.87;67.54
3260;BME280;68938;48.150;14.004;2024-03-02T08:46:22;97181.31;;;12.91;66.81
3260;BME280;68938;48.150;14.004;2024-03-02T08:48:49;97181.97;;;12.95;66.64
3260;BME280;68938;48.150;14.004;2024-03-02T08:51:16;97182.72;;;12.97;66.63
3260;BME280;68938;48.150;14.004;2024-03-02T08:53:42;97179.34;;;12.96;66.36
3260;BME280;68938;48.150;14.004;2024-03-02T08:56:09;97178.25;;;13.00;65.92
3260;BME280;68938;48.150;14.004;2024-03-02T08:58:37;97182.63;;;12.98;65.94
3260;BME280;68938;48.150;14.004;2024-03-02T09:01:04;97183.56;;;12.97;65.54
3260;BME280;68938;48.150;14.004;2024-03-02T09:03:31;97178.50;;;12.96;65.30
3260;BME280;68938;48.150;14.004;2024-03-02T09:05:58;97173.25;;;12.97;65.60
3260;BME280;68938;48.150;14.004;2024-03-02T09:08:25;97189.09;;;13.05;65.66
3260;BME280;68938;48.150;14.004;2024-03-02T09:10:52;97181.38;;;13.05;65.35
3260;BME280;68938;48.150;14.004;2024-03-02T09:13:19;97184.72;;;13.08;65.20
3260;BME280;68938;48.150;14.004;2024-03-02T09:15:46;97186.53;;;13.05;65.72
3260;BME280;68938;48.150;14.004;2024-03-02T09:18:14;97184.88;;;13.04;65.03
3260;BME280;68938;48.150;14.004;2024-03-02T09:20:40;97177.81;;;13.08;65.61
3260;BME280;68938;48.150;14.004;2024-03-02T09:23:07;97185.28;;;13.13;65.09
3260;BME280;68938;48.150;14.004;2024-03-02T09:25:34;97183.94;;;13.21;65.10
3260;BME280;68938;48.150;14.004;2024-03-02T09:28:01;97187.13;;;13.26;65.49
3260;BME280;68938;48.150;14.004;2024-03-02T09:30:29;97185.50;;;13.40;65.18
3260;BME280;68938;48.150;14.004;2024-03-02T09:32:56;97188.34;;;13.35;64.74
3260;BME280;68938;48.150;14.004;2024-03-02T09:35:43;97190.31;;;13.46;65.41
3260;BME280;68938;48.150;14.004;2024-03-02T09:38:09;97183.72;;;13.56;64.86
3260;BME280;68938;48.150;14.004;2024-03-02T09:40:36;97187.44;;;13.66;64.37
3260;BME280;68938;48.150;14.004;2024-03-02T09:43:03;97193.22;;;13.70;63.71
3260;BME280;68938;48.150;14.004;2024-03-02T09:45:31;97190.19;;;13.78;63.82
3260;BME280;68938;48.150;14.004;2024-03-02T09:47:58;97195.84;;;13.84;62.64
3260;BME280;68938;48.150;14.004;2024-03-02T09:50:26;97188.84;;;13.86;62.41
3260;BME280;68938;48.150;14.004;2024-03-02T09:52:54;97190.44;;;13.89;62.39
3260;BME280;68938;48.150;14.004;2024-03-02T09:55:21;97184.34;;;13.90;61.98
3260;BME280;68938;48.150;14.004;2024-03-02T09:57:48;97190.97;;;13.94;61.42
3260;BME280;68938;48.150;14.004;2024-03-02T10:00:15;97183.16;;;13.95;61.50
3260;BME280;68938;48.150;14.004;2024-03-02T10:02:42;97182.69;;;13.89;61.06
3260;BME280;68938;48.150;14.004;2024-03-02T10:05:10;97173.66;;;13.82;61.43
3260;BME280;68938;48.150;14.004;2024-03-02T10:07:37;97166.94;;;13.93;61.29
3260;BME280;68938;48.150;14.004;2024-03-02T10:10:14;97171.94;;;13.96;60.83
3260;BME280;68938;48.150;14.004;2024-03-02T10:12:42;97169.25;;;13.98;60.89
3260;BME280;68938;48.150;14.004;2024-03-02T10:15:09;97163.19;;;13.99;60.10
3260;BME280;68938;48.150;14.004;2024-03-02T10:17:38;97159.88;;;13.97;59.26
3260;BME280;68938;48.150;14.004;2024-03-02T10:20:34;97165.66;;;14.15;59.82
3260;BME280;68938;48.150;14.004;2024-03-02T10:23:14;97165.94;;;14.25;59.97
3260;BME280;68938;48.150;14.004;2024-03-02T10:25:43;97165.31;;;14.21;59.13
3260;BME280;68938;48.150;14.004;2024-03-02T10:28:23;97163.94;;;14.30;58.39
3260;BME280;68938;48.150;14.004;2024-03-02T10:30:51;97164.56;;;14.33;57.65
3260;BME280;68938;48.150;14.004;2024-03-02T10:33:18;97167.78;;;14.37;57.62
3260;BME280;68938;48.150;14.004;2024-03-02T10:35:48;97158.75;;;14.44;56.92
3260;BME280;68938;48.150;14.004;2024-03-02T10:38:17;97152.31;;;14.37;56.46
3260;BME280;68938;48.150;14.004;2024-03-02T10:40:47;97141.34;;;14.48;58.00
3260;BME280;68938;48.150;14.004;2024-03-02T10:43:14;97144.41;;;14.54;57.39
3260;BME280;68938;48.150;14.004;2024-03-02T10:45:42;97146.03;;;14.41;56.21
3260;BME280;68938;48.150;14.004;2024-03-02T10:48:10;97131.56;;;14.53;56.77
3260;BME280;68938;48.150;14.004;2024-03-02T10:50:37;97122.63;;;14.44;56.60
3260;BME280;68938;48.150;14.004;2024-03-02T10:53:04;97118.13;;;14.48;56.94
3260;BME280;68938;48.150;14.004;2024-03-02T10:55:31;97122.75;;;14.57;57.04
3260;BME280;68938;48.150;14.004;2024-03-02T10:58:00;97117.81;;;14.66;57.36
3260;BME280;68938;48.150;14.004;2024-03-02T11:00:33;97119.94;;;14.74;56.66
3260;BME280;68938;48.150;14.004;2024-03-02T11:03:05;97114.66;;;14.76;56.04
3260;BME280;68938;48.150;14.004;2024-03-02T11:05:36;97111.75;;;14.67;55.02
3260;BME280;68938;48.150;14.004;2024-03-02T11:08:13;97109.69;;;14.73;55.55
3260;BME280;68938;48.150;14.004;2024-03-02T11:10:41;97104.78;;;14.82;54.88
3260;BME280;68938;48.150;14.004;2024-03-02T11:13:22;97097.03;;;14.82;55.35
3260;BME280;68938;48.150;14.004;2024-03-02T11:15:55;97092.88;;;14.80;55.70
3260;BME280;68938;48.150;14.004;2024-03-02T11:18:27;97090.28;;;14.67;55.86
3260;BME280;68938;48.150;14.004;2024-03-02T11:20:54;97094.72;;;14.51;56.09
3260;BME280;68938;48.150;14.004;2024-03-02T11:23:32;97092.88;;;14.53;56.41
3260;BME280;68938;48.150;14.004;2024-03-02T11:26:22;97086.50;;;14.58;56.38
3260;BME280;68938;48.150;14.004;2024-03-02T11:28:49;97076.81;;;14.62;56.58
3260;BME280;68938;48.150;14.004;2024-03-02T11:31:16;97079.31;;;14.49;55.60
3260;BME280;68938;48.150;14.004;2024-03-02T11:33:43;97081.16;;;14.47;55.40
3260;BME280;68938;48.150;14.004;2024-03-02T11:36:10;97076.66;;;14.51;55.77
3260;BME280;68938;48.150;14.004;2024-03-02T11:38:38;97072.47;;;14.62;56.76
3260;BME280;68938;48.150;14.004;2024-03-02T11:41:06;97071.03;;;14.58;56.73
3260;BME280;68938;48.150;14.004;2024-03-02T11:43:37;97060.50;;;14.61;56.95
3260;BME280;68938;48.150;14.004;2024-03-02T11:46:05;97062.94;;;14.77;56.04
3260;BME280;68938;48.150;14.004;2024-03-02T11:48:35;97061.06;;;14.79;56.30
3260;BME280;68938;48.150;14.004;2024-03-02T11:51:05;97066.75;;;14.72;55.40
3260;BME280;68938;48.150;14.004;2024-03-02T11:53:33;97055.97;;;14.92;56.55
3260;BME280;68938;48.150;14.004;2024-03-02T11:56:02;97062.13;;;14.89;56.10
3260;BME280;68938;48.150;14.004;2024-03-02T11:58:30;97058.84;;;15.00;55.33
3260;BME280;68938;48.150;14.004;2024-03-02T12:00:57;97062.44;;;14.85;55.20
3260;BME280;68938;48.150;14.004;2024-03-02T12:03:25;97058.03;;;15.00;55.56
3260;BME280;68938;48.150;14.004;2024-03-02T12:05:54;97054.75;;;14.98;55.31
3260;BME280;68938;48.150;14.004;2024-03-02T12:08:22;97047.47;;;14.77;54.69
3260;BME280;68938;48.150;14.004;2024-03-02T12:11:02;97043.63;;;14.83;55.05
3260;BME280;68938;48.150;14.004;2024-03-02T12:13:30;97042.75;;;14.97;55.62
3260;BME280;68938;48.150;14.004;2024-03-02T12:15:58;97043.91;;;15.05;55.45
3260;BME280;68938;48.150;14.004;2024-03-02T12:18:25;97038.78;;;15.18;55.09
3260;BME280;68938;48.150;14.004;2024-03-02T12:20:53;97027.50;;;15.19;54.75
3260;BME280;68938;48.150;14.004;2024-03-02T12:23:20;97022.22;;;15.08;55.05
3260;BME280;68938;48.150;14.004;2024-03-02T12:25:47;97021.09;;;15.12;55.46
3260;BME280;68938;48.150;14.004;2024-03-02T12:28:14;97027.81;;;15.14;55.47
3260;BME280;68938;48.150;14.004;2024-03-02T12:30:42;97025.72;;;15.07;54.74
3260;BME280;68938;48.150;14.004;2024-03-02T12:33:11;97025.00;;;15.17;54.74
3260;BME280;68938;48.150;14.004;2024-03-02T12:35:38;97022.16;;;14.82;55.06
3260;BME280;68938;48.150;14.004;2024-03-02T12:38:05;97010.88;;;14.71;54.96
3260;BME280;68938;48.150;14.004;2024-03-02T12:40:32;97014.22;;;14.85;54.83
3260;BME280;68938;48.150;14.004;2024-03-02T12:42:59;97021.44;;;14.80;54.98
3260;BME280;68938;48.150;14.004;2024-03-02T12:45:27;97016.22;;;14.95;55.69
3260;BME280;68938;48.150;14.004;2024-03-02T12:47:54;97009.38;;;14.81;55.92
3260;BME280;68938;48.150;14.004;2024-03-02T12:50:21;97014.56;;;15.06;55.81
3260;BME280;68938;48.150;14.004;2024-03-02T12:52:55;97007.31;;;14.99;56.00
3260;BME280;68938;48.150;14.004;2024-03-02T12:55:23;96998.66;;;15.12;55.25
3260;BME280;68938;48.150;14.004;2024-03-02T12:57:51;96991.22;;;15.21;55.10
3260;BME280;68938;48.150;14.004;2024-03-02T13:00:21;96998.66;;;15.12;54.98
3260;BME280;68938;48.150;14.004;2024-03-02T13:02:49;96982.50;;;14.83;54.95
3260;BME280;68938;48.150;14.004;2024-03-02T13:05:17;96994.34;;;14.73;55.05